Montauk, New York
Current Conditions -  °F | °C
As of 7:03 AM on Tuesday 27 Jan 2015 (Local Time) from KGON Reporting Station
Moderate Fog Moderate Fog  
Wind Chill: -1°   Ceiling: 300
Heat Index: 17°   Visibility: 0.25mi
Dew Point: 15°   Wind: 25mph
Humidity: 92%   Direction: 10°N
Pressure: 29.48"   Gusts: 38mph
Location:  41.04°N, 71.95°W
Report Text: KGON 271203Z AUTO 01022G33KT 1/4SM R05/1400V2000FT FZFG VV003 M08/M09 A2948 RMK AO2 PK WND 36033/1158 T10831094 PWINO FZRANO $
Loading
Personal Weather Stations






























Interactive Weather Map New forecast layout! Learn more

10-Day Weather Forecast

Advertisements
Track Severe Weather on mobile